sensor_id;sensor_type;location;lat;lon;timestamp;P1;durP1;ratioP1;P2;durP2;ratioP2
10605;SDS011;5350;42.698;23.148;2023-06-04T00:01:09;20.73;;;13.18;;
10605;SDS011;5350;42.698;23.148;2023-06-04T00:03:36;15.32;;;13.60;;
10605;SDS011;5350;42.698;23.148;2023-06-04T00:06:03;16.05;;;13.75;;
10605;SDS011;5350;42.698;23.148;2023-06-04T00:08:31;16.27;;;13.23;;
10605;SDS011;5350;42.698;23.148;2023-06-04T00:10:57;16.27;;;10.38;;
10605;SDS011;5350;42.698;23.148;2023-06-04T00:13:24;17.10;;;11.23;;
10605;SDS011;5350;42.698;23.148;2023-06-04T00:15:51;12.07;;;10.77;;
10605;SDS011;5350;42.698;23.148;2023-06-04T00:18:17;15.55;;;12.45;;
10605;SDS011;5350;42.698;23.148;2023-06-04T00:20:44;14.13;;;11.02;;
10605;SDS011;5350;42.698;23.148;2023-06-04T00:23:11;12.55;;;10.95;;
10605;SDS011;5350;42.698;23.148;2023-06-04T00:25:39;12.52;;;11.25;;
10605;SDS011;5350;42.698;23.148;2023-06-04T00:28:05;12.80;;;11.50;;
10605;SDS011;5350;42.698;23.148;2023-06-04T00:30:32;13.30;;;11.93;;
10605;SDS011;5350;42.698;23.148;2023-06-04T00:33:01;13.07;;;11.77;;
10605;SDS011;5350;42.698;23.148;2023-06-04T00:35:28;13.30;;;11.52;;
10605;SDS011;5350;42.698;23.148;2023-06-04T00:37:54;14.88;;;13.07;;
10605;SDS011;5350;42.698;23.148;2023-06-04T00:40:21;24.05;;;13.45;;
10605;SDS011;5350;42.698;23.148;2023-06-04T00:42:49;15.07;;;12.07;;
10605;SDS011;5350;42.698;23.148;2023-06-04T00:45:16;13.90;;;11.70;;
10605;SDS011;5350;42.698;23.148;2023-06-04T00:47:45;12.90;;;11.38;;
10605;SDS011;5350;42.698;23.148;2023-06-04T00:50:12;13.10;;;10.63;;
10605;SDS011;5350;42.698;23.148;2023-06-04T00:52:40;14.45;;;11.57;;
10605;SDS011;5350;42.698;23.148;2023-06-04T00:55:07;13.00;;;11.63;;
10605;SDS011;5350;42.698;23.148;2023-06-04T00:57:37;14.55;;;12.07;;
10605;SDS011;5350;42.698;23.148;2023-06-04T01:00:06;14.68;;;12.23;;
10605;SDS011;5350;42.698;23.148;2023-06-04T01:02:33;13.00;;;11.68;;
10605;SDS011;5350;42.698;23.148;2023-06-04T01:05:06;15.98;;;12.70;;
10605;SDS011;5350;42.698;23.148;2023-06-04T01:07:41;14.98;;;12.32;;
10605;SDS011;5350;42.698;23.148;2023-06-04T01:10:12;13.68;;;11.93;;
10605;SDS011;5350;42.698;23.148;2023-06-04T01:12:39;14.15;;;12.57;;
10605;SDS011;5350;42.698;23.148;2023-06-04T01:15:08;14.10;;;11.60;;
10605;SDS011;5350;42.698;23.148;2023-06-04T01:17:37;13.38;;;11.25;;
10605;SDS011;5350;42.698;23.148;2023-06-04T01:20:12;17.55;;;12.00;;
10605;SDS011;5350;42.698;23.148;2023-06-04T01:22:48;13.65;;;11.73;;
10605;SDS011;5350;42.698;23.148;2023-06-04T01:25:31;12.90;;;11.00;;
10605;SDS011;5350;42.698;23.148;2023-06-04T01:27:59;14.57;;;12.98;;
10605;SDS011;5350;42.698;23.148;2023-06-04T01:30:30;15.52;;;11.23;;
10605;SDS011;5350;42.698;23.148;2023-06-04T01:32:58;12.85;;;11.43;;
10605;SDS011;5350;42.698;23.148;2023-06-04T01:35:25;15.55;;;11.43;;
10605;SDS011;5350;42.698;23.148;2023-06-04T01:37:53;12.10;;;10.90;;
10605;SDS011;5350;42.698;23.148;2023-06-04T01:40:21;11.90;;;10.68;;
10605;SDS011;5350;42.698;23.148;2023-06-04T01:42:48;15.30;;;11.35;;
10605;SDS011;5350;42.698;23.148;2023-06-04T01:45:15;13.13;;;11.60;;
10605;SDS011;5350;42.698;23.148;2023-06-04T01:47:43;13.80;;;12.10;;
10605;SDS011;5350;42.698;23.148;2023-06-04T01:50:10;13.88;;;12.38;;
10605;SDS011;5350;42.698;23.148;2023-06-04T01:52:37;12.98;;;10.65;;
10605;SDS011;5350;42.698;23.148;2023-06-04T01:55:04;12.80;;;11.30;;
10605;SDS011;5350;42.698;23.148;2023-06-04T01:57:32;14.43;;;11.95;;
10605;SDS011;5350;42.698;23.148;2023-06-04T02:00:00;12.98;;;11.57;;
10605;SDS011;5350;42.698;23.148;2023-06-04T02:02:28;12.70;;;11.40;;
10605;SDS011;5350;42.698;23.148;2023-06-04T02:04:57;12.20;;;11.07;;
10605;SDS011;5350;42.698;23.148;2023-06-04T02:07:24;11.43;;;10.18;;
10605;SDS011;5350;42.698;23.148;2023-06-04T02:09:51;12.82;;;11.52;;
10605;SDS011;5350;42.698;23.148;2023-06-04T02:12:17;14.10;;;12.15;;
10605;SDS011;5350;42.698;23.148;2023-06-04T02:14:44;14.93;;;11.80;;
10605;SDS011;5350;42.698;23.148;2023-06-04T02:17:12;13.80;;;9.90;;
10605;SDS011;5350;42.698;23.148;2023-06-04T02:19:39;12.23;;;10.30;;
10605;SDS011;5350;42.698;23.148;2023-06-04T02:22:11;10.70;;;9.60;;
10605;SDS011;5350;42.698;23.148;2023-06-04T02:24:38;10.00;;;8.85;;
10605;SDS011;5350;42.698;23.148;2023-06-04T02:27:07;9.93;;;8.95;;
10605;SDS011;5350;42.698;23.148;2023-06-04T02:29:34;10.75;;;9.60;;
10605;SDS011;5350;42.698;23.148;2023-06-04T02:32:01;11.38;;;10.18;;
10605;SDS011;5350;42.698;23.148;2023-06-04T02:34:28;12.10;;;10.32;;
10605;SDS011;5350;42.698;23.148;2023-06-04T02:36:55;12.32;;;10.82;;
10605;SDS011;5350;42.698;23.148;2023-06-04T02:39:23;11.85;;;9.70;;
10605;SDS011;5350;42.698;23.148;2023-06-04T02:41:50;10.48;;;9.48;;
10605;SDS011;5350;42.698;23.148;2023-06-04T02:44:17;13.60;;;10.15;;
10605;SDS011;5350;42.698;23.148;2023-06-04T02:46:44;12.48;;;9.63;;
10605;SDS011;5350;42.698;23.148;2023-06-04T02:49:10;10.63;;;9.52;;
10605;SDS011;5350;42.698;23.148;2023-06-04T02:51:38;18.98;;;9.65;;
10605;SDS011;5350;42.698;23.148;2023-06-04T02:54:05;10.35;;;9.35;;
10605;SDS011;5350;42.698;23.148;2023-06-04T02:56:34;11.80;;;9.52;;
10605;SDS011;5350;42.698;23.148;2023-06-04T02:59:02;10.82;;;9.82;;
10605;SDS011;5350;42.698;23.148;2023-06-04T03:01:30;10.55;;;9.45;;
10605;SDS011;5350;42.698;23.148;2023-06-04T03:03:57;13.73;;;9.77;;
10605;SDS011;5350;42.698;23.148;2023-06-04T03:06:23;13.38;;;10.38;;
10605;SDS011;5350;42.698;23.148;2023-06-04T03:08:51;11.10;;;10.02;;
10605;SDS011;5350;42.698;23.148;2023-06-04T03:11:18;10.55;;;9.48;;
10605;SDS011;5350;42.698;23.148;2023-06-04T03:13:47;10.15;;;8.60;;
10605;SDS011;5350;42.698;23.148;2023-06-04T03:16:14;9.02;;;8.23;;
10605;SDS011;5350;42.698;23.148;2023-06-04T03:18:41;8.40;;;6.93;;
10605;SDS011;5350;42.698;23.148;2023-06-04T03:21:09;7.80;;;7.10;;
10605;SDS011;5350;42.698;23.148;2023-06-04T03:23:38;8.38;;;6.10;;
10605;SDS011;5350;42.698;23.148;2023-06-04T03:26:05;7.03;;;6.32;;
10605;SDS011;5350;42.698;23.148;2023-06-04T03:28:32;6.93;;;5.90;;
10605;SDS011;5350;42.698;23.148;2023-06-04T03:31:01;6.43;;;5.28;;
10605;SDS011;5350;42.698;23.148;2023-06-04T03:33:28;5.63;;;5.05;;
10605;SDS011;5350;42.698;23.148;2023-06-04T03:35:55;6.45;;;4.82;;
10605;SDS011;5350;42.698;23.148;2023-06-04T03:38:23;5.38;;;4.55;;
10605;SDS011;5350;42.698;23.148;2023-06-04T03:40:50;5.88;;;4.18;;
10605;SDS011;5350;42.698;23.148;2023-06-04T03:43:17;4.50;;;4.10;;
10605;SDS011;5350;42.698;23.148;2023-06-04T03:45:44;4.53;;;4.13;;
10605;SDS011;5350;42.698;23.148;2023-06-04T03:48:13;4.38;;;3.65;;
10605;SDS011;5350;42.698;23.148;2023-06-04T03:50:39;7.85;;;4.38;;
10605;SDS011;5350;42.698;23.148;2023-06-04T03:53:06;6.00;;;5.20;;
10605;SDS011;5350;42.698;23.148;2023-06-04T03:55:33;12.60;;;6.75;;
10605;SDS011;5350;42.698;23.148;2023-06-04T03:57:59;8.10;;;6.68;;
10605;SDS011;5350;42.698;23.148;2023-06-04T04:00:27;6.07;;;5.47;;
10605;SDS011;5350;42.698;23.148;2023-06-04T04:02:53;6.85;;;4.68;;
10605;SDS011;5350;42.698;23.148;2023-06-04T04:05:23;4.82;;;4.43;;
10605;SDS011;5350;42.698;23.148;2023-06-04T04:07:49;4.68;;;4.28;;
10605;SDS011;5350;42.698;23.148;2023-06-04T04:10:16;7.20;;;3.70;;
10605;SDS011;5350;42.698;23.148;2023-06-04T04:12:43;3.95;;;3.65;;
10605;SDS011;5350;42.698;23.148;2023-06-04T04:15:10;3.83;;;3.53;;
10605;SDS011;5350;42.698;23.148;2023-06-04T04:17:37;5.15;;;4.13;;
10605;SDS011;5350;42.698;23.148;2023-06-04T04:20:03;5.53;;;5.00;;
10605;SDS011;5350;42.698;23.148;2023-06-04T04:22:32;6.22;;;5.30;;
10605;SDS011;5350;42.698;23.148;2023-06-04T04:24:59;7.30;;;6.70;;
10605;SDS011;5350;42.698;23.148;2023-06-04T04:27:26;8.02;;;7.30;;
10605;SDS011;5350;42.698;23.148;2023-06-04T04:29:55;10.23;;;9.18;;
10605;SDS011;5350;42.698;23.148;2023-06-04T04:32:24;9.75;;;8.85;;
10605;SDS011;5350;42.698;23.148;2023-06-04T04:34:52;8.45;;;7.28;;
10605;SDS011;5350;42.698;23.148;2023-06-04T04:37:20;7.40;;;6.70;;
10605;SDS011;5350;42.698;23.148;2023-06-04T04:39:48;7.47;;;6.35;;
10605;SDS011;5350;42.698;23.148;2023-06-04T04:42:17;7.95;;;5.68;;
10605;SDS011;5350;42.698;23.148;2023-06-04T04:44:44;6.15;;;5.55;;
10605;SDS011;5350;42.698;23.148;2023-06-04T04:47:13;7.10;;;5.53;;
10605;SDS011;5350;42.698;23.148;2023-06-04T04:49:40;5.75;;;5.35;;
10605;SDS011;5350;42.698;23.148;2023-06-04T04:52:07;5.38;;;4.90;;
10605;SDS011;5350;42.698;23.148;2023-06-04T04:54:33;8.90;;;4.70;;
10605;SDS011;5350;42.698;23.148;2023-06-04T04:57:02;4.60;;;4.20;;
10605;SDS011;5350;42.698;23.148;2023-06-04T04:59:28;6.03;;;4.00;;
10605;SDS011;5350;42.698;23.148;2023-06-04T05:01:55;5.45;;;3.85;;
10605;SDS011;5350;42.698;23.148;2023-06-04T05:04:22;8.55;;;5.07;;
10605;SDS011;5350;42.698;23.148;2023-06-04T05:06:48;7.03;;;4.78;;
10605;SDS011;5350;42.698;23.148;2023-06-04T05:09:15;5.18;;;4.57;;
10605;SDS011;5350;42.698;23.148;2023-06-04T05:11:42;5.63;;;5.13;;
10605;SDS011;5350;42.698;23.148;2023-06-04T05:14:10;6.75;;;5.20;;
10605;SDS011;5350;42.698;23.148;2023-06-04T05:16:37;7.47;;;6.78;;
10605;SDS011;5350;42.698;23.148;2023-06-04T05:19:06;7.93;;;7.13;;
10605;SDS011;5350;42.698;23.148;2023-06-04T05:21:33;10.32;;;8.32;;
10605;SDS011;5350;42.698;23.148;2023-06-04T05:24:02;9.20;;;8.40;;
10605;SDS011;5350;42.698;23.148;2023-06-04T05:26:28;10.25;;;9.35;;
10605;SDS011;5350;42.698;23.148;2023-06-04T05:28:55;10.05;;;8.93;;
10605;SDS011;5350;42.698;23.148;2023-06-04T05:31:24;9.65;;;8.65;;
10605;SDS011;5350;42.698;23.148;2023-06-04T05:33:53;9.68;;;8.70;;
10605;SDS011;5350;42.698;23.148;2023-06-04T05:36:20;8.95;;;8.15;;
10605;SDS011;5350;42.698;23.148;2023-06-04T05:38:47;9.32;;;8.40;;
10605;SDS011;5350;42.698;23.148;2023-06-04T05:41:22;10.90;;;8.45;;
10605;SDS011;5350;42.698;23.148;2023-06-04T05:43:48;9.88;;;8.88;;
10605;SDS011;5350;42.698;23.148;2023-06-04T05:46:15;10.05;;;9.10;;
10605;SDS011;5350;42.698;23.148;2023-06-04T05:48:43;9.35;;;8.52;;
10605;SDS011;5350;42.698;23.148;2023-06-04T05:51:12;8.68;;;7.88;;
10605;SDS011;5350;42.698;23.148;2023-06-04T05:53:39;8.88;;;7.88;;
10605;SDS011;5350;42.698;23.148;2023-06-04T05:56:06;9.90;;;7.20;;
10605;SDS011;5350;42.698;23.148;2023-06-04T05:58:33;9.35;;;7.80;;
10605;SDS011;5350;42.698;23.148;2023-06-04T06:01:00;7.75;;;7.05;;
10605;SDS011;5350;42.698;23.148;2023-06-04T06:03:27;7.40;;;6.68;;
10605;SDS011;5350;42.698;23.148;2023-06-04T06:05:55;9.38;;;6.95;;
10605;SDS011;5350;42.698;23.148;2023-06-04T06:08:24;8.07;;;6.95;;
10605;SDS011;5350;42.698;23.148;2023-06-04T06:10:51;8.55;;;6.22;;
10605;SDS011;5350;42.698;23.148;2023-06-04T06:13:18;8.60;;;6.50;;
10605;SDS011;5350;42.698;23.148;2023-06-04T06:15:45;8.23;;;6.45;;
10605;SDS011;5350;42.698;23.148;2023-06-04T06:18:13;7.35;;;6.65;;
10605;SDS011;5350;42.698;23.148;2023-06-04T06:20:40;8.82;;;6.43;;
10605;SDS011;5350;42.698;23.148;2023-06-04T06:23:08;6.90;;;6.30;;
10605;SDS011;5350;42.698;23.148;2023-06-04T06:25:35;6.88;;;6.18;;
10605;SDS011;5350;42.698;23.148;2023-06-04T06:28:02;8.88;;;6.45;;
10605;SDS011;5350;42.698;23.148;2023-06-04T06:30:29;10.13;;;6.60;;
10605;SDS011;5350;42.698;23.148;2023-06-04T06:32:56;7.82;;;5.90;;
10605;SDS011;5350;42.698;23.148;2023-06-04T06:35:23;6.82;;;5.50;;
10605;SDS011;5350;42.698;23.148;2023-06-04T06:37:49;6.68;;;5.50;;
10605;SDS011;5350;42.698;23.148;2023-06-04T06:40:18;6.65;;;6.03;;
10605;SDS011;5350;42.698;23.148;2023-06-04T06:42:47;9.05;;;5.93;;
10605;SDS011;5350;42.698;23.148;2023-06-04T06:45:15;6.97;;;6.28;;
10605;SDS011;5350;42.698;23.148;2023-06-04T06:47:41;7.75;;;6.80;;
10605;SDS011;5350;42.698;23.148;2023-06-04T06:50:08;8.45;;;6.88;;
10605;SDS011;5350;42.698;23.148;2023-06-04T06:52:35;12.02;;;6.95;;
10605;SDS011;5350;42.698;23.148;2023-06-04T06:55:03;10.57;;;6.75;;
10605;SDS011;5350;42.698;23.148;2023-06-04T06:57:32;9.30;;;6.55;;
10605;SDS011;5350;42.698;23.148;2023-06-04T06:59:59;10.43;;;7.18;;
10605;SDS011;5350;42.698;23.148;2023-06-04T07:02:26;10.57;;;7.07;;
10605;SDS011;5350;42.698;23.148;2023-06-04T07:04:53;8.20;;;7.28;;
10605;SDS011;5350;42.698;23.148;2023-06-04T07:07:20;11.82;;;7.18;;
10605;SDS011;5350;42.698;23.148;2023-06-04T07:09:47;8.48;;;7.68;;
10605;SDS011;5350;42.698;23.148;2023-06-04T07:12:14;14.15;;;7.78;;
10605;SDS011;5350;42.698;23.148;2023-06-04T07:14:42;10.88;;;7.25;;
10605;SDS011;5350;42.698;23.148;2023-06-04T07:17:09;8.77;;;7.88;;
10605;SDS011;5350;42.698;23.148;2023-06-04T07:19:35;9.20;;;7.60;;
10605;SDS011;5350;42.698;23.148;2023-06-04T07:22:02;8.27;;;7.45;;
10605;SDS011;5350;42.698;23.148;2023-06-04T07:24:29;8.45;;;7.55;;
10605;SDS011;5350;42.698;23.148;2023-06-04T07:26:56;11.00;;;7.28;;
10605;SDS011;5350;42.698;23.148;2023-06-04T07:29:23;8.73;;;7.75;;
10605;SDS011;5350;42.698;23.148;2023-06-04T07:31:51;10.27;;;8.80;;
10605;SDS011;5350;42.698;23.148;2023-06-04T07:34:17;13.05;;;8.70;;
10605;SDS011;5350;42.698;23.148;2023-06-04T07:36:45;8.48;;;7.35;;
10605;SDS011;5350;42.698;23.148;2023-06-04T07:39:11;8.38;;;7.07;;
10605;SDS011;5350;42.698;23.148;2023-06-04T07:41:38;10.40;;;7.50;;
10605;SDS011;5350;42.698;23.148;2023-06-04T07:44:05;8.35;;;7.55;;
10605;SDS011;5350;42.698;23.148;2023-06-04T07:46:32;8.85;;;6.85;;
10605;SDS011;5350;42.698;23.148;2023-06-04T07:49:00;7.47;;;6.68;;
10605;SDS011;5350;42.698;23.148;2023-06-04T07:51:26;8.18;;;7.35;;
10605;SDS011;5350;42.698;23.148;2023-06-04T07:53:53;10.15;;;7.80;;
10605;SDS011;5350;42.698;23.148;2023-06-04T07:56:20;10.45;;;7.78;;
10605;SDS011;5350;42.698;23.148;2023-06-04T07:58:47;9.30;;;6.80;;
10605;SDS011;5350;42.698;23.148;2023-06-04T08:01:13;11.25;;;7.93;;
10605;SDS011;5350;42.698;23.148;2023-06-04T08:03:40;10.25;;;7.50;;
10605;SDS011;5350;42.698;23.148;2023-06-04T08:06:09;13.70;;;8.85;;
10605;SDS011;5350;42.698;23.148;2023-06-04T08:08:36;13.00;;;8.48;;
10605;SDS011;5350;42.698;23.148;2023-06-04T08:11:03;9.93;;;8.15;;
10605;SDS011;5350;42.698;23.148;2023-06-04T08:13:29;8.98;;;8.10;;
10605;SDS011;5350;42.698;23.148;2023-06-04T08:15:56;7.90;;;6.95;;
10605;SDS011;5350;42.698;23.148;2023-06-04T08:18:23;9.85;;;8.20;;
10605;SDS011;5350;42.698;23.148;2023-06-04T08:20:49;9.50;;;7.75;;
10605;SDS011;5350;42.698;23.148;2023-06-04T08:23:17;8.95;;;7.75;;
10605;SDS011;5350;42.698;23.148;2023-06-04T08:25:44;9.88;;;7.43;;
10605;SDS011;5350;42.698;23.148;2023-06-04T08:28:12;7.45;;;6.75;;
10605;SDS011;5350;42.698;23.148;2023-06-04T08:30:40;8.93;;;7.20;;
10605;SDS011;5350;42.698;23.148;2023-06-04T08:33:07;9.13;;;7.38;;
10605;SDS011;5350;42.698;23.148;2023-06-04T08:35:34;8.57;;;7.60;;
10605;SDS011;5350;42.698;23.148;2023-06-04T08:38:02;7.80;;;7.10;;
10605;SDS011;5350;42.698;23.148;2023-06-04T08:40:30;8.63;;;7.70;;
10605;SDS011;5350;42.698;23.148;2023-06-04T08:42:57;13.60;;;7.60;;
10605;SDS011;5350;42.698;23.148;2023-06-04T08:45:24;8.82;;;7.93;;
10605;SDS011;5350;42.698;23.148;2023-06-04T08:47:52;10.07;;;7.97;;
10605;SDS011;5350;42.698;23.148;2023-06-04T08:50:20;9.63;;;8.02;;
10605;SDS011;5350;42.698;23.148;2023-06-04T08:52:51;8.52;;;7.63;;
10605;SDS011;5350;42.698;23.148;2023-06-04T08:55:20;10.48;;;8.50;;
10605;SDS011;5350;42.698;23.148;2023-06-04T08:57:48;9.38;;;8.35;;
10605;SDS011;5350;42.698;23.148;2023-06-04T09:00:16;11.93;;;8.90;;
10605;SDS011;5350;42.698;23.148;2023-06-04T09:02:43;9.88;;;8.52;;
10605;SDS011;5350;42.698;23.148;2023-06-04T09:05:13;10.35;;;9.00;;
10605;SDS011;5350;42.698;23.148;2023-06-04T09:07:45;9.80;;;8.80;;
10605;SDS011;5350;42.698;23.148;2023-06-04T09:10:12;15.73;;;10.20;;
10605;SDS011;5350;42.698;23.148;2023-06-04T09:12:45;12.85;;;10.07;;
10605;SDS011;5350;42.698;23.148;2023-06-04T09:15:14;11.32;;;9.35;;
10605;SDS011;5350;42.698;23.148;2023-06-04T09:17:41;12.00;;;9.30;;
10605;SDS011;5350;42.698;23.148;2023-06-04T09:20:08;12.45;;;9.65;;
10605;SDS011;5350;42.698;23.148;2023-06-04T09:22:44;11.60;;;9.55;;
10605;SDS011;5350;42.698;23.148;2023-06-04T09:25:18;12.57;;;10.32;;
10605;SDS011;5350;42.698;23.148;2023-06-04T09:27:46;13.75;;;10.77;;
10605;SDS011;5350;42.698;23.148;2023-06-04T09:30:15;12.70;;;9.95;;
10605;SDS011;5350;42.698;23.148;2023-06-04T09:32:41;12.38;;;9.63;;
10605;SDS011;5350;42.698;23.148;2023-06-04T09:35:09;12.15;;;10.20;;
10605;SDS011;5350;42.698;23.148;2023-06-04T09:37:37;12.43;;;9.75;;
10605;SDS011;5350;42.698;23.148;2023-06-04T09:40:05;12.00;;;10.75;;
10605;SDS011;5350;42.698;23.148;2023-06-04T09:42:41;11.25;;;10.25;;
10605;SDS011;5350;42.698;23.148;2023-06-04T09:45:09;10.27;;;9.27;;
10605;SDS011;5350;42.698;23.148;2023-06-04T09:47:42;11.25;;;9.60;;
10605;SDS011;5350;42.698;23.148;2023-06-04T09:50:10;10.23;;;8.98;;
10605;SDS011;5350;42.698;23.148;2023-06-04T09:52:37;10.23;;;9.15;;
10605;SDS011;5350;42.698;23.148;2023-06-04T09:55:14;10.38;;;8.95;;
10605;SDS011;5350;42.698;23.148;2023-06-04T09:57:44;11.68;;;10.43;;
10605;SDS011;5350;42.698;23.148;2023-06-04T10:00:13;11.88;;;10.30;;
10605;SDS011;5350;42.698;23.148;2023-06-04T10:02:44;10.48;;;9.57;;
10605;SDS011;5350;42.698;23.148;2023-06-04T10:05:12;11.63;;;10.43;;
10605;SDS011;5350;42.698;23.148;2023-06-04T10:07:40;14.82;;;11.35;;
10605;SDS011;5350;42.698;23.148;2023-06-04T10:10:11;13.05;;;10.60;;
10605;SDS011;5350;42.698;23.148;2023-06-04T10:12:40;11.52;;;10.32;;
10605;SDS011;5350;42.698;23.148;2023-06-04T10:15:10;11.18;;;9.98;;
10605;SDS011;5350;42.698;23.148;2023-06-04T10:17:37;10.77;;;9.57;;
10605;SDS011;5350;42.698;23.148;2023-06-04T10:20:07;12.48;;;9.93;;
10605;SDS011;5350;42.698;23.148;2023-06-04T10:22:35;10.65;;;9.48;;
10605;SDS011;5350;42.698;23.148;2023-06-04T10:25:03;11.13;;;9.40;;
10605;SDS011;5350;42.698;23.148;2023-06-04T10:27:30;11.88;;;9.40;;
10605;SDS011;5350;42.698;23.148;2023-06-04T10:30:00;12.35;;;8.68;;
10605;SDS011;5350;42.698;23.148;2023-06-04T10:32:28;13.10;;;9.65;;
10605;SDS011;5350;42.698;23.148;2023-06-04T10:34:55;10.70;;;9.75;;
10605;SDS011;5350;42.698;23.148;2023-06-04T10:37:25;10.77;;;9.68;;
10605;SDS011;5350;42.698;23.148;2023-06-04T10:39:55;10.73;;;9.65;;
10605;SDS011;5350;42.698;23.148;2023-06-04T10:42:23;11.23;;;9.82;;
10605;SDS011;5350;42.698;23.148;2023-06-04T10:44:50;12.07;;;9.75;;
10605;SDS011;5350;42.698;23.148;2023-06-04T10:47:18;11.88;;;9.85;;
10605;SDS011;5350;42.698;23.148;2023-06-04T10:49:46;10.15;;;9.07;;
10605;SDS011;5350;42.698;23.148;2023-06-04T10:52:14;11.35;;;9.77;;
10605;SDS011;5350;42.698;23.148;2023-06-04T10:54:43;10.27;;;9.27;;
10605;SDS011;5350;42.698;23.148;2023-06-04T10:57:11;10.05;;;9.00;;
10605;SDS011;5350;42.698;23.148;2023-06-04T10:59:38;13.30;;;9.90;;
10605;SDS011;5350;42.698;23.148;2023-06-04T11:02:06;10.05;;;8.38;;
10605;SDS011;5350;42.698;23.148;2023-06-04T11:04:33;9.68;;;8.68;;
10605;SDS011;5350;42.698;23.148;2023-06-04T11:07:00;11.13;;;9.13;;
10605;SDS011;5350;42.698;23.148;2023-06-04T11:09:29;11.00;;;8.98;;
10605;SDS011;5350;42.698;23.148;2023-06-04T11:11:58;9.30;;;8.32;;
10605;SDS011;5350;42.698;23.148;2023-06-04T11:14:26;9.48;;;8.48;;
10605;SDS011;5350;42.698;23.148;2023-06-04T11:16:52;9.52;;;7.93;;
10605;SDS011;5350;42.698;23.148;2023-06-04T11:19:19;11.10;;;8.10;;
10605;SDS011;5350;42.698;23.148;2023-06-04T11:21:46;10.25;;;9.15;;
10605;SDS011;5350;42.698;23.148;2023-06-04T11:24:14;9.05;;;7.60;;
10605;SDS011;5350;42.698;23.148;2023-06-04T11:26:40;8.73;;;7.63;;
10605;SDS011;5350;42.698;23.148;2023-06-04T11:29:09;9.93;;;7.68;;
10605;SDS011;5350;42.698;23.148;2023-06-04T11:31:40;8.45;;;7.55;;
10605;SDS011;5350;42.698;23.148;2023-06-04T11:34:08;8.02;;;7.10;;
10605;SDS011;5350;42.698;23.148;2023-06-04T11:36:37;8.80;;;7.30;;
10605;SDS011;5350;42.698;23.148;2023-06-04T11:39:05;7.50;;;6.68;;
10605;SDS011;5350;42.698;23.148;2023-06-04T11:41:32;8.93;;;7.68;;
10605;SDS011;5350;42.698;23.148;2023-06-04T11:44:01;8.40;;;7.55;;
10605;SDS011;5350;42.698;23.148;2023-06-04T11:46:31;8.48;;;7.68;;
10605;SDS011;5350;42.698;23.148;2023-06-04T11:48:58;8.75;;;7.07;;
10605;SDS011;5350;42.698;23.148;2023-06-04T11:51:26;9.98;;;8.02;;
10605;SDS011;5350;42.698;23.148;2023-06-04T11:53:52;9.45;;;7.20;;
10605;SDS011;5350;42.698;23.148;2023-06-04T11:56:20;7.63;;;6.93;;
10605;SDS011;5350;42.698;23.148;2023-06-04T11:58:47;9.52;;;7.68;;
10605;SDS011;5350;42.698;23.148;2023-06-04T12:01:14;9.05;;;7.75;;
10605;SDS011;5350;42.698;23.148;2023-06-04T12:03:43;7.82;;;7.13;;
10605;SDS011;5350;42.698;23.148;2023-06-04T12:06:14;8.27;;;7.10;;
10605;SDS011;5350;42.698;23.148;2023-06-04T12:08:48;8.35;;;7.38;;
10605;SDS011;5350;42.698;23.148;2023-06-04T12:11:26;7.90;;;6.97;;
10605;SDS011;5350;42.698;23.148;2023-06-04T12:13:54;7.65;;;6.65;;
10605;SDS011;5350;42.698;23.148;2023-06-04T12:16:22;8.65;;;7.03;;
10605;SDS011;5350;42.698;23.148;2023-06-04T12:18:50;7.55;;;6.88;;
10605;SDS011;5350;42.698;23.148;2023-06-04T12:21:17;8.75;;;7.28;;
10605;SDS011;5350;42.698;23.148;2023-06-04T12:23:47;8.73;;;7.43;;
10605;SDS011;5350;42.698;23.148;2023-06-04T12:26:21;8.25;;;7.55;;
10605;SDS011;5350;42.698;23.148;2023-06-04T12:29:01;9.68;;;7.25;;
10605;SDS011;5350;42.698;23.148;2023-06-04T12:31:29;7.57;;;6.70;;
10605;SDS011;5350;42.698;23.148;2023-06-04T12:33:59;7.82;;;6.93;;
10605;SDS011;5350;42.698;23.148;2023-06-04T12:36:27;8.52;;;7.18;;
10605;SDS011;5350;42.698;23.148;2023-06-04T12:38:57;6.95;;;6.25;;
10605;SDS011;5350;42.698;23.148;2023-06-04T12:41:25;7.20;;;6.47;;
10605;SDS011;5350;42.698;23.148;2023-06-04T12:43:52;6.45;;;5.93;;
10605;SDS011;5350;42.698;23.148;2023-06-04T12:46:19;6.93;;;6.22;;
10605;SDS011;5350;42.698;23.148;2023-06-04T12:48:46;8.10;;;6.90;;
10605;SDS011;5350;42.698;23.148;2023-06-04T12:51:14;7.55;;;6.78;;
10605;SDS011;5350;42.698;23.148;2023-06-04T12:53:41;6.82;;;6.22;;
10605;SDS011;5350;42.698;23.148;2023-06-04T12:56:08;7.25;;;6.60;;
10605;SDS011;5350;42.698;23.148;2023-06-04T12:58:36;7.00;;;6.30;;
10605;SDS011;5350;42.698;23.148;2023-06-04T13:01:02;7.10;;;6.40;;
10605;SDS011;5350;42.698;23.148;2023-06-04T13:03:30;7.22;;;6.10;;
10605;SDS011;5350;42.698;23.148;2023-06-04T13:05:57;9.10;;;6.68;;
10605;SDS011;5350;42.698;23.148;2023-06-04T13:08:25;7.00;;;6.30;;
10605;SDS011;5350;42.698;23.148;2023-06-04T13:10:52;7.32;;;6.57;;
10605;SDS011;5350;42.698;23.148;2023-06-04T13:13:19;7.35;;;6.47;;
10605;SDS011;5350;42.698;23.148;2023-06-04T13:15:46;7.30;;;6.50;;
10605;SDS011;5350;42.698;23.148;2023-06-04T13:18:13;8.18;;;6.60;;
10605;SDS011;5350;42.698;23.148;2023-06-04T13:20:40;7.10;;;6.40;;
10605;SDS011;5350;42.698;23.148;2023-06-04T13:23:07;7.63;;;6.85;;
10605;SDS011;5350;42.698;23.148;2023-06-04T13:25:36;8.20;;;7.43;;
10605;SDS011;5350;42.698;23.148;2023-06-04T13:28:03;7.60;;;6.90;;
10605;SDS011;5350;42.698;23.148;2023-06-04T13:30:30;8.15;;;7.30;;
10605;SDS011;5350;42.698;23.148;2023-06-04T13:32:57;7.38;;;6.82;;
10605;SDS011;5350;42.698;23.148;2023-06-04T13:35:24;8.02;;;7.25;;
10605;SDS011;5350;42.698;23.148;2023-06-04T13:37:51;8.13;;;6.40;;
10605;SDS011;5350;42.698;23.148;2023-06-04T13:40:17;12.65;;;7.05;;
10605;SDS011;5350;42.698;23.148;2023-06-04T13:42:46;7.47;;;6.78;;
10605;SDS011;5350;42.698;23.148;2023-06-04T13:45:12;7.30;;;6.70;;
10605;SDS011;5350;42.698;23.148;2023-06-04T13:47:39;8.15;;;7.25;;
10605;SDS011;5350;42.698;23.148;2023-06-04T13:50:06;8.13;;;7.35;;
10605;SDS011;5350;42.698;23.148;2023-06-04T13:52:33;7.75;;;6.72;;
10605;SDS011;5350;42.698;23.148;2023-06-04T13:55:00;7.47;;;6.75;;
10605;SDS011;5350;42.698;23.148;2023-06-04T13:57:27;9.13;;;7.45;;
10605;SDS011;5350;42.698;23.148;2023-06-04T13:59:55;8.70;;;6.53;;
10605;SDS011;5350;42.698;23.148;2023-06-04T14:02:21;11.57;;;7.40;;
10605;SDS011;5350;42.698;23.148;2023-06-04T14:04:49;7.07;;;6.43;;
10605;SDS011;5350;42.698;23.148;2023-06-04T14:07:16;7.50;;;6.70;;
10605;SDS011;5350;42.698;23.148;2023-06-04T14:09:43;6.93;;;6.32;;
10605;SDS011;5350;42.698;23.148;2023-06-04T14:12:10;6.60;;;6.00;;
10605;SDS011;5350;42.698;23.148;2023-06-04T14:14:38;7.22;;;6.60;;
10605;SDS011;5350;42.698;23.148;2023-06-04T14:17:06;7.03;;;6.38;;
10605;SDS011;5350;42.698;23.148;2023-06-04T14:19:33;7.05;;;6.35;;
10605;SDS011;5350;42.698;23.148;2023-06-04T14:22:00;7.78;;;6.90;;
10605;SDS011;5350;42.698;23.148;2023-06-04T14:24:26;7.95;;;7.25;;
10605;SDS011;5350;42.698;23.148;2023-06-04T14:26:53;8.40;;;7.60;;
10605;SDS011;5350;42.698;23.148;2023-06-04T14:29:20;13.00;;;8.90;;
10605;SDS011;5350;42.698;23.148;2023-06-04T14:31:46;10.65;;;9.65;;
10605;SDS011;5350;42.698;23.148;2023-06-04T14:34:16;11.90;;;10.70;;
10605;SDS011;5350;42.698;23.148;2023-06-04T14:36:42;12.18;;;10.70;;
10605;SDS011;5350;42.698;23.148;2023-06-04T14:39:09;12.25;;;11.05;;
10605;SDS011;5350;42.698;23.148;2023-06-04T14:41:36;12.45;;;11.35;;